sensor_id;sensor_type;location;lat;lon;timestamp;temperature;humidity
59146;DHT22;44928;53.074;6.646;2023-11-22T00:00:47;5.00;99.90
59146;DHT22;44928;53.074;6.646;2023-11-22T00:03:13;5.00;99.90
59146;DHT22;44928;53.074;6.646;2023-11-22T00:05:39;5.00;99.90
59146;DHT22;44928;53.074;6.646;2023-11-22T00:08:05;4.90;99.90
59146;DHT22;44928;53.074;6.646;2023-11-22T00:10:31;4.90;99.90
59146;DHT22;44928;53.074;6.646;2023-11-22T00:12:56;4.90;99.90
59146;DHT22;44928;53.074;6.646;2023-11-22T00:15:24;4.90;99.90
59146;DHT22;44928;53.074;6.646;2023-11-22T00:17:50;4.80;99.90
59146;DHT22;44928;53.074;6.646;2023-11-22T00:20:15;4.80;99.90
59146;DHT22;44928;53.074;6.646;2023-11-22T00:22:43;4.80;99.90
59146;DHT22;44928;53.074;6.646;2023-11-22T00:25:10;4.70;99.90
59146;DHT22;44928;53.074;6.646;2023-11-22T00:27:38;4.70;99.90
59146;DHT22;44928;53.074;6.646;2023-11-22T00:30:05;4.70;99.90
59146;DHT22;44928;53.074;6.646;2023-11-22T00:32:31;4.60;99.90
59146;DHT22;44928;53.074;6.646;2023-11-22T00:34:57;4.60;99.90
59146;DHT22;44928;53.074;6.646;2023-11-22T00:37:23;4.60;99.90
59146;DHT22;44928;53.074;6.646;2023-11-22T00:39:48;4.60;99.90
59146;DHT22;44928;53.074;6.646;2023-11-22T00:42:14;4.50;99.90
59146;DHT22;44928;53.074;6.646;2023-11-22T00:44:40;4.50;99.90
59146;DHT22;44928;53.074;6.646;2023-11-22T00:47:06;4.50;99.90
59146;DHT22;44928;53.074;6.646;2023-11-22T00:49:32;4.50;99.90
59146;DHT22;44928;53.074;6.646;2023-11-22T00:51:58;4.50;99.90
59146;DHT22;44928;53.074;6.646;2023-11-22T00:54:24;4.50;99.90
59146;DHT22;44928;53.074;6.646;2023-11-22T00:56:50;4.40;99.90
59146;DHT22;44928;53.074;6.646;2023-11-22T00:59:16;4.40;99.90
59146;DHT22;44928;53.074;6.646;2023-11-22T01:01:42;4.30;99.90
59146;DHT22;44928;53.074;6.646;2023-11-22T01:04:08;4.20;99.90
59146;DHT22;44928;53.074;6.646;2023-11-22T01:06:34;4.10;99.90
59146;DHT22;44928;53.074;6.646;2023-11-22T01:09:00;4.10;99.90
59146;DHT22;44928;53.074;6.646;2023-11-22T01:11:26;4.10;99.90
59146;DHT22;44928;53.074;6.646;2023-11-22T01:13:52;4.00;99.90
59146;DHT22;44928;53.074;6.646;2023-11-22T01:16:17;4.00;99.90
59146;DHT22;44928;53.074;6.646;2023-11-22T01:18:43;3.90;99.90
59146;DHT22;44928;53.074;6.646;2023-11-22T01:21:12;3.90;99.90
59146;DHT22;44928;53.074;6.646;2023-11-22T01:23:38;3.90;99.90
59146;DHT22;44928;53.074;6.646;2023-11-22T01:26:04;3.80;99.90
59146;DHT22;44928;53.074;6.646;2023-11-22T01:28:31;3.80;99.90
59146;DHT22;44928;53.074;6.646;2023-11-22T01:31:00;3.80;99.90
59146;DHT22;44928;53.074;6.646;2023-11-22T01:33:27;3.80;99.90
59146;DHT22;44928;53.074;6.646;2023-11-22T01:35:53;3.80;99.90
59146;DHT22;44928;53.074;6.646;2023-11-22T01:38:19;3.80;99.90
59146;DHT22;44928;53.074;6.646;2023-11-22T01:40:46;3.80;99.90
59146;DHT22;44928;53.074;6.646;2023-11-22T01:43:17;3.80;99.90
59146;DHT22;44928;53.074;6.646;2023-11-22T01:45:43;3.80;99.90
59146;DHT22;44928;53.074;6.646;2023-11-22T01:48:11;3.80;99.90
59146;DHT22;44928;53.074;6.646;2023-11-22T01:50:38;3.80;99.90
59146;DHT22;44928;53.074;6.646;2023-11-22T01:53:09;3.80;99.90
59146;DHT22;44928;53.074;6.646;2023-11-22T01:55:36;3.80;99.90
59146;DHT22;44928;53.074;6.646;2023-11-22T01:58:02;3.70;99.90
59146;DHT22;44928;53.074;6.646;2023-11-22T02:03:13;3.70;99.90
59146;DHT22;44928;53.074;6.646;2023-11-22T02:05:41;3.60;99.90
59146;DHT22;44928;53.074;6.646;2023-11-22T02:08:09;3.50;99.90
59146;DHT22;44928;53.074;6.646;2023-11-22T02:10:36;3.50;99.90
59146;DHT22;44928;53.074;6.646;2023-11-22T02:13:05;3.40;99.90
59146;DHT22;44928;53.074;6.646;2023-11-22T02:15:34;3.50;99.90
59146;DHT22;44928;53.074;6.646;2023-11-22T02:18:00;3.40;99.90
59146;DHT22;44928;53.074;6.646;2023-11-22T02:20:26;3.50;99.90
59146;DHT22;44928;53.074;6.646;2023-11-22T02:22:52;3.40;99.90
59146;DHT22;44928;53.074;6.646;2023-11-22T02:25:18;3.40;99.90
59146;DHT22;44928;53.074;6.646;2023-11-22T02:27:44;3.40;99.90
59146;DHT22;44928;53.074;6.646;2023-11-22T02:30:10;3.40;99.90
59146;DHT22;44928;53.074;6.646;2023-11-22T02:32:37;3.30;99.90
59146;DHT22;44928;53.074;6.646;2023-11-22T02:35:05;3.20;99.90
59146;DHT22;44928;53.074;6.646;2023-11-22T02:37:34;3.20;99.90
59146;DHT22;44928;53.074;6.646;2023-11-22T02:40:19;3.10;99.90
59146;DHT22;44928;53.074;6.646;2023-11-22T02:42:50;3.00;99.90
59146;DHT22;44928;53.074;6.646;2023-11-22T02:45:18;3.00;99.90
59146;DHT22;44928;53.074;6.646;2023-11-22T02:47:44;3.00;99.90
59146;DHT22;44928;53.074;6.646;2023-11-22T02:50:14;3.00;99.90
59146;DHT22;44928;53.074;6.646;2023-11-22T02:52:40;3.00;99.90
59146;DHT22;44928;53.074;6.646;2023-11-22T02:55:07;3.00;99.90
59146;DHT22;44928;53.074;6.646;2023-11-22T02:57:35;3.00;99.90
59146;DHT22;44928;53.074;6.646;2023-11-22T03:00:06;3.00;99.90
59146;DHT22;44928;53.074;6.646;2023-11-22T03:02:33;2.90;99.90
59146;DHT22;44928;53.074;6.646;2023-11-22T03:05:00;2.90;99.90
59146;DHT22;44928;53.074;6.646;2023-11-22T03:07:26;2.80;99.90
59146;DHT22;44928;53.074;6.646;2023-11-22T03:09:52;2.80;99.90
59146;DHT22;44928;53.074;6.646;2023-11-22T03:12:19;2.80;99.90
59146;DHT22;44928;53.074;6.646;2023-11-22T03:14:46;2.70;99.90
59146;DHT22;44928;53.074;6.646;2023-11-22T03:17:14;2.70;99.90
59146;DHT22;44928;53.074;6.646;2023-11-22T03:19:40;2.70;99.90
59146;DHT22;44928;53.074;6.646;2023-11-22T03:22:06;2.60;99.90
59146;DHT22;44928;53.074;6.646;2023-11-22T03:24:32;2.60;99.90
59146;DHT22;44928;53.074;6.646;2023-11-22T03:27:02;2.60;99.90
59146;DHT22;44928;53.074;6.646;2023-11-22T03:29:29;2.50;99.90
59146;DHT22;44928;53.074;6.646;2023-11-22T03:31:55;2.50;99.90
59146;DHT22;44928;53.074;6.646;2023-11-22T03:34:21;2.50;99.90
59146;DHT22;44928;53.074;6.646;2023-11-22T03:36:47;2.40;99.90
59146;DHT22;44928;53.074;6.646;2023-11-22T03:39:17;2.40;99.90
59146;DHT22;44928;53.074;6.646;2023-11-22T03:41:43;2.40;99.90
59146;DHT22;44928;53.074;6.646;2023-11-22T03:44:09;2.40;99.90
59146;DHT22;44928;53.074;6.646;2023-11-22T03:46:38;2.40;99.90
59146;DHT22;44928;53.074;6.646;2023-11-22T03:49:05;2.40;99.90
59146;DHT22;44928;53.074;6.646;2023-11-22T03:51:35;2.40;99.90
59146;DHT22;44928;53.074;6.646;2023-11-22T03:54:02;2.40;99.90
59146;DHT22;44928;53.074;6.646;2023-11-22T03:56:29;2.40;99.90
59146;DHT22;44928;53.074;6.646;2023-11-22T03:58:55;2.40;99.90
59146;DHT22;44928;53.074;6.646;2023-11-22T04:01:21;2.50;99.90
59146;DHT22;44928;53.074;6.646;2023-11-22T04:03:47;2.40;99.90
59146;DHT22;44928;53.074;6.646;2023-11-22T04:06:15;2.40;99.90
59146;DHT22;44928;53.074;6.646;2023-11-22T04:08:44;2.40;99.90
59146;DHT22;44928;53.074;6.646;2023-11-22T04:11:10;2.40;99.90
59146;DHT22;44928;53.074;6.646;2023-11-22T04:13:37;2.40;99.90
59146;DHT22;44928;53.074;6.646;2023-11-22T04:16:04;2.30;99.90
59146;DHT22;44928;53.074;6.646;2023-11-22T04:18:29;2.20;99.90
59146;DHT22;44928;53.074;6.646;2023-11-22T04:20:56;2.20;99.90
59146;DHT22;44928;53.074;6.646;2023-11-22T04:23:24;2.20;99.90
59146;DHT22;44928;53.074;6.646;2023-11-22T04:25:49;2.20;99.90
59146;DHT22;44928;53.074;6.646;2023-11-22T04:28:15;2.20;99.90
59146;DHT22;44928;53.074;6.646;2023-11-22T04:30:42;2.20;99.90
59146;DHT22;44928;53.074;6.646;2023-11-22T04:33:08;2.20;99.90
59146;DHT22;44928;53.074;6.646;2023-11-22T04:35:34;2.20;99.90
59146;DHT22;44928;53.074;6.646;2023-11-22T04:38:02;2.10;99.90
59146;DHT22;44928;53.074;6.646;2023-11-22T04:40:29;2.10;99.90
59146;DHT22;44928;53.074;6.646;2023-11-22T04:42:55;2.10;99.90
59146;DHT22;44928;53.074;6.646;2023-11-22T04:45:21;2.10;99.90
59146;DHT22;44928;53.074;6.646;2023-11-22T04:47:47;2.00;99.90
59146;DHT22;44928;53.074;6.646;2023-11-22T04:50:13;2.00;99.90
59146;DHT22;44928;53.074;6.646;2023-11-22T04:52:39;2.00;99.90
59146;DHT22;44928;53.074;6.646;2023-11-22T04:55:05;2.00;99.90
59146;DHT22;44928;53.074;6.646;2023-11-22T04:57:31;2.00;99.90
59146;DHT22;44928;53.074;6.646;2023-11-22T04:59:57;2.00;99.90
59146;DHT22;44928;53.074;6.646;2023-11-22T05:02:23;2.00;99.90
59146;DHT22;44928;53.074;6.646;2023-11-22T05:04:48;2.00;99.90
59146;DHT22;44928;53.074;6.646;2023-11-22T05:07:15;2.00;99.90
59146;DHT22;44928;53.074;6.646;2023-11-22T05:09:41;2.00;99.90
59146;DHT22;44928;53.074;6.646;2023-11-22T05:12:09;2.00;99.90
59146;DHT22;44928;53.074;6.646;2023-11-22T05:14:36;1.90;99.90
59146;DHT22;44928;53.074;6.646;2023-11-22T05:17:02;1.90;99.90
59146;DHT22;44928;53.074;6.646;2023-11-22T05:19:29;1.90;99.90
59146;DHT22;44928;53.074;6.646;2023-11-22T05:21:55;1.90;99.90
59146;DHT22;44928;53.074;6.646;2023-11-22T05:24:21;1.90;99.90
59146;DHT22;44928;53.074;6.646;2023-11-22T05:26:47;2.00;99.90
59146;DHT22;44928;53.074;6.646;2023-11-22T05:29:13;2.00;99.90
59146;DHT22;44928;53.074;6.646;2023-11-22T05:31:39;2.00;99.90
59146;DHT22;44928;53.074;6.646;2023-11-22T05:34:04;2.10;99.90
59146;DHT22;44928;53.074;6.646;2023-11-22T05:36:30;2.00;99.90
59146;DHT22;44928;53.074;6.646;2023-11-22T05:38:56;2.00;99.90
59146;DHT22;44928;53.074;6.646;2023-11-22T05:41:25;2.00;99.90
59146;DHT22;44928;53.074;6.646;2023-11-22T05:43:52;2.00;99.90
59146;DHT22;44928;53.074;6.646;2023-11-22T05:46:19;2.00;99.90
59146;DHT22;44928;53.074;6.646;2023-11-22T05:48:50;2.00;99.90
59146;DHT22;44928;53.074;6.646;2023-11-22T05:51:16;2.00;99.90
59146;DHT22;44928;53.074;6.646;2023-11-22T05:53:42;2.00;99.90
59146;DHT22;44928;53.074;6.646;2023-11-22T05:56:09;2.00;99.90
59146;DHT22;44928;53.074;6.646;2023-11-22T05:58:35;2.00;99.90
59146;DHT22;44928;53.074;6.646;2023-11-22T06:01:05;2.00;99.90
59146;DHT22;44928;53.074;6.646;2023-11-22T06:03:32;2.00;99.90
59146;DHT22;44928;53.074;6.646;2023-11-22T06:05:58;2.00;99.90
59146;DHT22;44928;53.074;6.646;2023-11-22T06:08:24;2.00;99.90
59146;DHT22;44928;53.074;6.646;2023-11-22T06:10:50;2.00;99.90
59146;DHT22;44928;53.074;6.646;2023-11-22T06:13:17;2.00;99.90
59146;DHT22;44928;53.074;6.646;2023-11-22T06:15:43;2.00;99.90
59146;DHT22;44928;53.074;6.646;2023-11-22T06:18:09;2.00;99.90
59146;DHT22;44928;53.074;6.646;2023-11-22T06:20:35;2.00;99.90
59146;DHT22;44928;53.074;6.646;2023-11-22T06:23:01;2.00;99.90
59146;DHT22;44928;53.074;6.646;2023-11-22T06:25:26;2.10;99.90
59146;DHT22;44928;53.074;6.646;2023-11-22T06:27:52;2.10;99.90
59146;DHT22;44928;53.074;6.646;2023-11-22T06:30:18;2.00;99.90
59146;DHT22;44928;53.074;6.646;2023-11-22T06:32:44;2.00;99.90
59146;DHT22;44928;53.074;6.646;2023-11-22T06:35:10;2.00;99.90
59146;DHT22;44928;53.074;6.646;2023-11-22T06:37:41;2.00;99.90
59146;DHT22;44928;53.074;6.646;2023-11-22T06:40:07;2.00;99.90
59146;DHT22;44928;53.074;6.646;2023-11-22T06:42:38;2.00;99.90
59146;DHT22;44928;53.074;6.646;2023-11-22T06:45:05;1.90;99.90
59146;DHT22;44928;53.074;6.646;2023-11-22T06:47:32;1.90;99.90
59146;DHT22;44928;53.074;6.646;2023-11-22T06:49:58;1.80;99.90
59146;DHT22;44928;53.074;6.646;2023-11-22T06:52:24;1.90;99.90
59146;DHT22;44928;53.074;6.646;2023-11-22T06:54:49;1.80;99.90
59146;DHT22;44928;53.074;6.646;2023-11-22T06:57:15;1.80;99.90
59146;DHT22;44928;53.074;6.646;2023-11-22T06:59:41;1.80;99.90
59146;DHT22;44928;53.074;6.646;2023-11-22T07:02:07;1.80;99.90
59146;DHT22;44928;53.074;6.646;2023-11-22T07:04:33;1.90;99.90
59146;DHT22;44928;53.074;6.646;2023-11-22T07:06:59;1.80;99.90
59146;DHT22;44928;53.074;6.646;2023-11-22T07:09:26;1.80;99.90
59146;DHT22;44928;53.074;6.646;2023-11-22T07:11:52;1.80;99.90
59146;DHT22;44928;53.074;6.646;2023-11-22T07:14:18;1.80;99.90
59146;DHT22;44928;53.074;6.646;2023-11-22T07:16:45;1.80;99.90
59146;DHT22;44928;53.074;6.646;2023-11-22T07:19:11;1.80;99.90
59146;DHT22;44928;53.074;6.646;2023-11-22T07:21:38;1.80;99.90
59146;DHT22;44928;53.074;6.646;2023-11-22T07:24:05;1.80;99.90
59146;DHT22;44928;53.074;6.646;2023-11-22T07:26:34;1.80;99.90
59146;DHT22;44928;53.074;6.646;2023-11-22T07:29:00;1.80;99.90
59146;DHT22;44928;53.074;6.646;2023-11-22T07:31:26;1.80;99.90
59146;DHT22;44928;53.074;6.646;2023-11-22T07:33:51;1.80;99.90
59146;DHT22;44928;53.074;6.646;2023-11-22T07:36:17;1.90;99.90
59146;DHT22;44928;53.074;6.646;2023-11-22T07:38:43;1.80;99.90
59146;DHT22;44928;53.074;6.646;2023-11-22T07:41:10;1.90;99.90
59146;DHT22;44928;53.074;6.646;2023-11-22T07:43:36;1.90;99.90
59146;DHT22;44928;53.074;6.646;2023-11-22T07:46:06;2.00;99.90
59146;DHT22;44928;53.074;6.646;2023-11-22T07:48:38;2.00;99.90
59146;DHT22;44928;53.074;6.646;2023-11-22T07:51:07;2.00;99.90
59146;DHT22;44928;53.074;6.646;2023-11-22T07:53:33;2.00;99.90
59146;DHT22;44928;53.074;6.646;2023-11-22T07:56:00;2.10;99.90
59146;DHT22;44928;53.074;6.646;2023-11-22T07:58:32;2.10;99.90
59146;DHT22;44928;53.074;6.646;2023-11-22T08:00:58;2.20;99.90
59146;DHT22;44928;53.074;6.646;2023-11-22T08:03:25;2.20;99.90
59146;DHT22;44928;53.074;6.646;2023-11-22T08:05:52;2.20;99.90
59146;DHT22;44928;53.074;6.646;2023-11-22T08:08:21;2.20;99.90
59146;DHT22;44928;53.074;6.646;2023-11-22T08:10:48;2.30;99.90
59146;DHT22;44928;53.074;6.646;2023-11-22T08:13:15;2.30;99.90
59146;DHT22;44928;53.074;6.646;2023-11-22T08:15:42;2.30;99.90
59146;DHT22;44928;53.074;6.646;2023-11-22T08:18:07;2.30;99.90
59146;DHT22;44928;53.074;6.646;2023-11-22T08:20:34;2.40;99.90
59146;DHT22;44928;53.074;6.646;2023-11-22T08:23:00;2.40;99.90
59146;DHT22;44928;53.074;6.646;2023-11-22T08:25:26;2.40;99.90
59146;DHT22;44928;53.074;6.646;2023-11-22T08:27:52;2.40;99.90
59146;DHT22;44928;53.074;6.646;2023-11-22T08:30:19;2.50;99.90
59146;DHT22;44928;53.074;6.646;2023-11-22T08:32:46;2.50;99.90
59146;DHT22;44928;53.074;6.646;2023-11-22T08:35:20;2.50;99.90
59146;DHT22;44928;53.074;6.646;2023-11-22T08:37:49;2.50;99.90
59146;DHT22;44928;53.074;6.646;2023-11-22T08:40:16;2.50;99.90
59146;DHT22;44928;53.074;6.646;2023-11-22T08:42:46;2.50;99.90
59146;DHT22;44928;53.074;6.646;2023-11-22T08:45:13;2.50;99.90
59146;DHT22;44928;53.074;6.646;2023-11-22T08:47:40;2.50;99.90
59146;DHT22;44928;53.074;6.646;2023-11-22T08:50:07;2.60;99.90
59146;DHT22;44928;53.074;6.646;2023-11-22T08:52:34;2.60;99.90
59146;DHT22;44928;53.074;6.646;2023-11-22T08:55:00;2.60;99.90
59146;DHT22;44928;53.074;6.646;2023-11-22T08:57:28;2.60;99.90
59146;DHT22;44928;53.074;6.646;2023-11-22T08:59:55;2.60;99.90
59146;DHT22;44928;53.074;6.646;2023-11-22T09:02:22;2.60;99.90
59146;DHT22;44928;53.074;6.646;2023-11-22T09:04:48;2.70;99.90
59146;DHT22;44928;53.074;6.646;2023-11-22T09:07:14;2.70;99.90
59146;DHT22;44928;53.074;6.646;2023-11-22T09:09:43;2.70;99.90
59146;DHT22;44928;53.074;6.646;2023-11-22T09:12:09;2.80;99.90
59146;DHT22;44928;53.074;6.646;2023-11-22T09:14:40;2.80;99.90
59146;DHT22;44928;53.074;6.646;2023-11-22T09:17:08;2.80;99.90
59146;DHT22;44928;53.074;6.646;2023-11-22T09:19:35;2.90;99.90
59146;DHT22;44928;53.074;6.646;2023-11-22T09:22:01;2.90;99.90
59146;DHT22;44928;53.074;6.646;2023-11-22T09:24:27;2.90;99.90
59146;DHT22;44928;53.074;6.646;2023-11-22T09:26:53;2.90;99.90
59146;DHT22;44928;53.074;6.646;2023-11-22T09:29:19;3.00;99.90
59146;DHT22;44928;53.074;6.646;2023-11-22T09:31:45;3.00;99.90
59146;DHT22;44928;53.074;6.646;2023-11-22T09:34:13;3.00;99.90
59146;DHT22;44928;53.074;6.646;2023-11-22T09:36:41;3.10;99.90
59146;DHT22;44928;53.074;6.646;2023-11-22T09:39:06;3.10;99.90
59146;DHT22;44928;53.074;6.646;2023-11-22T09:41:36;3.10;99.90
59146;DHT22;44928;53.074;6.646;2023-11-22T09:44:02;3.20;99.90
59146;DHT22;44928;53.074;6.646;2023-11-22T09:46:29;3.20;99.90
59146;DHT22;44928;53.074;6.646;2023-11-22T09:48:56;3.30;99.90
59146;DHT22;44928;53.074;6.646;2023-11-22T09:51:29;3.30;99.90
59146;DHT22;44928;53.074;6.646;2023-11-22T09:53:57;3.30;99.90
59146;DHT22;44928;53.074;6.646;2023-11-22T09:56:26;3.40;99.90
59146;DHT22;44928;53.074;6.646;2023-11-22T09:58:53;3.40;99.90
59146;DHT22;44928;53.074;6.646;2023-11-22T10:01:22;3.40;99.90
59146;DHT22;44928;53.074;6.646;2023-11-22T10:03:49;3.50;99.90
59146;DHT22;44928;53.074;6.646;2023-11-22T10:06:15;3.50;99.90
59146;DHT22;44928;53.074;6.646;2023-11-22T10:08:41;3.50;99.90
59146;DHT22;44928;53.074;6.646;2023-11-22T10:11:07;3.60;99.90
59146;DHT22;44928;53.074;6.646;2023-11-22T10:13:34;3.60;99.90
59146;DHT22;44928;53.074;6.646;2023-11-22T10:16:13;3.70;99.90
59146;DHT22;44928;53.074;6.646;2023-11-22T10:18:41;3.70;99.90
59146;DHT22;44928;53.074;6.646;2023-11-22T10:21:25;3.70;99.90
59146;DHT22;44928;53.074;6.646;2023-11-22T10:23:56;3.80;99.90
59146;DHT22;44928;53.074;6.646;2023-11-22T10:26:23;3.80;99.90
59146;DHT22;44928;53.074;6.646;2023-11-22T10:28:56;3.90;99.90
59146;DHT22;44928;53.074;6.646;2023-11-22T10:31:23;3.90;99.90
59146;DHT22;44928;53.074;6.646;2023-11-22T10:33:50;3.90;99.90
59146;DHT22;44928;53.074;6.646;2023-11-22T10:36:16;4.00;99.90
59146;DHT22;44928;53.074;6.646;2023-11-22T10:38:47;4.00;99.90
59146;DHT22;44928;53.074;6.646;2023-11-22T10:41:14;4.10;99.90
59146;DHT22;44928;53.074;6.646;2023-11-22T10:43:40;4.10;99.90
59146;DHT22;44928;53.074;6.646;2023-11-22T10:46:08;4.20;99.90
59146;DHT22;44928;53.074;6.646;2023-11-22T10:48:36;4.30;99.90
59146;DHT22;44928;53.074;6.646;2023-11-22T10:51:04;4.30;99.90
59146;DHT22;44928;53.074;6.646;2023-11-22T10:53:34;4.30;99.90
59146;DHT22;44928;53.074;6.646;2023-11-22T10:56:17;4.40;99.90
59146;DHT22;44928;53.074;6.646;2023-11-22T10:58:54;4.40;99.90
59146;DHT22;44928;53.074;6.646;2023-11-22T11:01:25;4.40;99.90
59146;DHT22;44928;53.074;6.646;2023-11-22T11:06:34;4.40;99.90
59146;DHT22;44928;53.074;6.646;2023-11-22T11:09:06;4.50;99.90
59146;DHT22;44928;53.074;6.646;2023-11-22T11:11:35;4.50;99.90
59146;DHT22;44928;53.074;6.646;2023-11-22T11:14:03;4.50;99.90
59146;DHT22;44928;53.074;6.646;2023-11-22T11:16:31;4.50;99.90
59146;DHT22;44928;53.074;6.646;2023-11-22T11:19:00;4.60;99.90
59146;DHT22;44928;53.074;6.646;2023-11-22T11:21:27;4.60;99.90
59146;DHT22;44928;53.074;6.646;2023-11-22T11:23:55;4.60;99.90
59146;DHT22;44928;53.074;6.646;2023-11-22T11:26:27;4.70;99.90
59146;DHT22;44928;53.074;6.646;2023-11-22T11:28:54;4.80;99.90
59146;DHT22;44928;53.074;6.646;2023-11-22T11:31:23;4.90;99.90
59146;DHT22;44928;53.074;6.646;2023-11-22T11:36:28;4.90;99.90
59146;DHT22;44928;53.074;6.646;2023-11-22T11:38:55;5.00;99.90
59146;DHT22;44928;53.074;6.646;2023-11-22T11:41:34;5.00;99.90
59146;DHT22;44928;53.074;6.646;2023-11-22T11:44:04;5.10;99.90
59146;DHT22;44928;53.074;6.646;2023-11-22T11:46:33;5.10;99.90
59146;DHT22;44928;53.074;6.646;2023-11-22T11:48:59;5.10;99.90
59146;DHT22;44928;53.074;6.646;2023-11-22T11:51:28;5.20;99.90
59146;DHT22;44928;53.074;6.646;2023-11-22T11:53:57;5.20;99.90
59146;DHT22;44928;53.074;6.646;2023-11-22T11:56:23;5.30;99.90
59146;DHT22;44928;53.074;6.646;2023-11-22T11:58:53;5.30;99.90
59146;DHT22;44928;53.074;6.646;2023-11-22T12:01:21;5.30;99.90
59146;DHT22;44928;53.074;6.646;2023-11-22T12:03:47;5.40;99.90
59146;DHT22;44928;53.074;6.646;2023-11-22T12:06:17;5.40;99.90
59146;DHT22;44928;53.074;6.646;2023-11-22T12:08:43;5.40;99.90
59146;DHT22;44928;53.074;6.646;2023-11-22T12:11:09;5.40;99.90
59146;DHT22;44928;53.074;6.646;2023-11-22T12:13:37;5.40;99.90
59146;DHT22;44928;53.074;6.646;2023-11-22T12:16:09;5.40;99.90
59146;DHT22;44928;53.074;6.646;2023-11-22T12:18:44;5.40;99.90
59146;DHT22;44928;53.074;6.646;2023-11-22T12:21:11;5.40;99.90
59146;DHT22;44928;53.074;6.646;2023-11-22T12:23:42;5.40;99.90
59146;DHT22;44928;53.074;6.646;2023-11-22T12:26:15;5.40;99.90
59146;DHT22;44928;53.074;6.646;2023-11-22T12:28:45;5.40;99.90
59146;DHT22;44928;53.074;6.646;2023-11-22T12:31:14;5.40;99.90
59146;DHT22;44928;53.074;6.646;2023-11-22T12:33:41;5.40;99.90
59146;DHT22;44928;53.074;6.646;2023-11-22T12:36:08;5.40;99.90
59146;DHT22;44928;53.074;6.646;2023-11-22T12:38:41;5.40;99.90
59146;DHT22;44928;53.074;6.646;2023-11-22T12:41:07;5.40;99.90
59146;DHT22;44928;53.074;6.646;2023-11-22T12:43:34;5.40;99.90
59146;DHT22;44928;53.074;6.646;2023-11-22T12:46:01;5.40;99.90
59146;DHT22;44928;53.074;6.646;2023-11-22T12:48:28;5.40;99.90
59146;DHT22;44928;53.074;6.646;2023-11-22T12:50:58;5.40;99.90
59146;DHT22;44928;53.074;6.646;2023-11-22T12:53:25;5.40;99.90
59146;DHT22;44928;53.074;6.646;2023-11-22T12:55:54;5.40;99.90
59146;DHT22;44928;53.074;6.646;2023-11-22T12:58:21;5.40;99.90
59146;DHT22;44928;53.074;6.646;2023-11-22T13:00:49;5.40;99.90
59146;DHT22;44928;53.074;6.646;2023-11-22T13:03:15;5.40;99.90
59146;DHT22;44928;53.074;6.646;2023-11-22T13:05:43;5.40;99.90
59146;DHT22;44928;53.074;6.646;2023-11-22T13:08:10;5.40;99.90
59146;DHT22;44928;53.074;6.646;2023-11-22T13:10:46;5.40;99.90
59146;DHT22;44928;53.074;6.646;2023-11-22T13:13:14;5.40;99.90
59146;DHT22;44928;53.074;6.646;2023-11-22T13:15:40;5.40;99.90
59146;DHT22;44928;53.074;6.646;2023-11-22T13:18:06;5.40;99.90
59146;DHT22;44928;53.074;6.646;2023-11-22T13:20:34;5.40;99.90
59146;DHT22;44928;53.074;6.646;2023-11-22T13:23:00;5.40;99.90
59146;DHT22;44928;53.074;6.646;2023-11-22T13:25:26;5.40;99.90
59146;DHT22;44928;53.074;6.646;2023-11-22T13:27:52;5.40;99.90
59146;DHT22;44928;53.074;6.646;2023-11-22T13:30:22;5.40;99.90
59146;DHT22;44928;53.074;6.646;2023-11-22T13:32:49;5.40;99.90
59146;DHT22;44928;53.074;6.646;2023-11-22T13:35:15;5.50;99.90
59146;DHT22;44928;53.074;6.646;2023-11-22T13:37:46;5.50;99.90
59146;DHT22;44928;53.074;6.646;2023-11-22T13:40:17;5.50;99.90
59146;DHT22;44928;53.074;6.646;2023-11-22T13:42:48;5.40;99.90
59146;DHT22;44928;53.074;6.646;2023-11-22T13:45:16;5.40;99.90
59146;DHT22;44928;53.074;6.646;2023-11-22T13:47:46;5.40;99.90
59146;DHT22;44928;53.074;6.646;2023-11-22T13:50:17;5.40;99.90
59146;DHT22;44928;53.074;6.646;2023-11-22T13:52:50;5.40;99.90
59146;DHT22;44928;53.074;6.646;2023-11-22T13:55:16;5.40;99.90
59146;DHT22;44928;53.074;6.646;2023-11-22T13:57:45;5.40;99.90
59146;DHT22;44928;53.074;6.646;2023-11-22T14:00:11;5.40;99.90
59146;DHT22;44928;53.074;6.646;2023-11-22T14:02:51;5.40;99.90
59146;DHT22;44928;53.074;6.646;2023-11-22T14:05:17;5.40;99.90
59146;DHT22;44928;53.074;6.646;2023-11-22T14:07:43;5.40;99.90
59146;DHT22;44928;53.074;6.646;2023-11-22T14:10:11;5.40;99.90
59146;DHT22;44928;53.074;6.646;2023-11-22T14:12:43;5.30;99.90
59146;DHT22;44928;53.074;6.646;2023-11-22T14:15:10;5.30;99.90
59146;DHT22;44928;53.074;6.646;2023-11-22T14:17:37;5.30;99.90
59146;DHT22;44928;53.074;6.646;2023-11-22T14:20:10;5.30;99.90
59146;DHT22;44928;53.074;6.646;2023-11-22T14:22:38;5.30;99.90
59146;DHT22;44928;53.074;6.646;2023-11-22T14:25:05;5.30;99.90
59146;DHT22;44928;53.074;6.646;2023-11-22T14:27:34;5.30;99.90
59146;DHT22;44928;53.074;6.646;2023-11-22T14:30:00;5.20;99.90
59146;DHT22;44928;53.074;6.646;2023-11-22T14:32:31;5.20;99.90
59146;DHT22;44928;53.074;6.646;2023-11-22T14:34:57;5.20;99.90
59146;DHT22;44928;53.074;6.646;2023-11-22T14:37:23;5.20;99.90
59146;DHT22;44928;53.074;6.646;2023-11-22T14:39:49;5.20;99.90
59146;DHT22;44928;53.074;6.646;2023-11-22T14:42:14;5.20;99.90
59146;DHT22;44928;53.074;6.646;2023-11-22T14:44:41;5.20;99.90
59146;DHT22;44928;53.074;6.646;2023-11-22T14:47:06;5.20;99.90
59146;DHT22;44928;53.074;6.646;2023-11-22T14:49:41;5.20;99.90
59146;DHT22;44928;53.074;6.646;2023-11-22T14:52:06;5.20;99.90
59146;DHT22;44928;53.074;6.646;2023-11-22T14:54:36;5.20;99.90
59146;DHT22;44928;53.074;6.646;2023-11-22T14:57:02;5.20;99.90
59146;DHT22;44928;53.074;6.646;2023-11-22T14:59:28;5.20;99.90
59146;DHT22;44928;53.074;6.646;2023-11-22T15:01:57;5.20;99.90
59146;DHT22;44928;53.074;6.646;2023-11-22T15:04:23;5.20;99.90
59146;DHT22;44928;53.074;6.646;2023-11-22T15:06:50;5.20;99.90
59146;DHT22;44928;53.074;6.646;2023-11-22T15:09:16;5.10;99.90
59146;DHT22;44928;53.074;6.646;2023-11-22T15:11:42;5.10;99.90
59146;DHT22;44928;53.074;6.646;2023-11-22T15:14:09;5.10;99.90
59146;DHT22;44928;53.074;6.646;2023-11-22T15:16:35;5.10;99.90
59146;DHT22;44928;53.074;6.646;2023-11-22T15:19:02;5.10;99.90
59146;DHT22;44928;53.074;6.646;2023-11-22T15:21:28;5.10;99.90
59146;DHT22;44928;53.074;6.646;2023-11-22T15:23:54;5.10;99.90
59146;DHT22;44928;53.074;6.646;2023-11-22T15:26:23;5.10;99.90
59146;DHT22;44928;53.074;6.646;2023-11-22T15:28:49;5.10;99.90
59146;DHT22;44928;53.074;6.646;2023-11-22T15:31:18;5.10;99.90
59146;DHT22;44928;53.074;6.646;2023-11-22T15:33:49;5.10;99.90
59146;DHT22;44928;53.074;6.646;2023-11-22T15:36:15;5.10;99.90
59146;DHT22;44928;53.074;6.646;2023-11-22T15:38:41;5.10;99.90
59146;DHT22;44928;53.074;6.646;2023-11-22T15:41:06;5.10;99.90
59146;DHT22;44928;53.074;6.646;2023-11-22T15:43:35;5.10;99.90
59146;DHT22;44928;53.074;6.646;2023-11-22T15:46:01;5.10;99.90
59146;DHT22;44928;53.074;6.646;2023-11-22T15:48:27;5.10;99.90
59146;DHT22;44928;53.074;6.646;2023-11-22T15:50:53;5.10;99.90
59146;DHT22;44928;53.074;6.646;2023-11-22T15:53:19;5.20;99.90